sensor_id;sensor_type;location;lat;lon;timestamp;P1;durP1;ratioP1;P2;durP2;ratioP2
14377;SDS011;7272;53.668;9.578;2023-01-19T00:00:31;14.33;;;12.93;;
14377;SDS011;7272;53.668;9.578;2023-01-19T00:03:33;15.33;;;13.77;;
14377;SDS011;7272;53.668;9.578;2023-01-19T00:06:36;15.93;;;13.13;;
14377;SDS011;7272;53.668;9.578;2023-01-19T00:09:39;15.57;;;13.47;;
14377;SDS011;7272;53.668;9.578;2023-01-19T00:12:41;13.77;;;12.27;;
14377;SDS011;7272;53.668;9.578;2023-01-19T00:15:43;13.93;;;11.83;;
14377;SDS011;7272;53.668;9.578;2023-01-19T00:18:45;15.63;;;13.50;;
14377;SDS011;7272;53.668;9.578;2023-01-19T00:21:47;14.03;;;12.33;;
14377;SDS011;7272;53.668;9.578;2023-01-19T00:24:50;13.90;;;12.67;;
14377;SDS011;7272;53.668;9.578;2023-01-19T00:27:52;13.57;;;12.27;;
14377;SDS011;7272;53.668;9.578;2023-01-19T00:30:54;14.10;;;12.60;;
14377;SDS011;7272;53.668;9.578;2023-01-19T00:33:56;13.50;;;12.20;;
14377;SDS011;7272;53.668;9.578;2023-01-19T00:36:58;13.50;;;12.20;;
14377;SDS011;7272;53.668;9.578;2023-01-19T00:40:04;13.27;;;11.97;;
14377;SDS011;7272;53.668;9.578;2023-01-19T00:43:07;14.00;;;12.57;;
14377;SDS011;7272;53.668;9.578;2023-01-19T00:46:09;14.17;;;12.70;;
14377;SDS011;7272;53.668;9.578;2023-01-19T00:49:11;12.97;;;11.67;;
14377;SDS011;7272;53.668;9.578;2023-01-19T00:52:13;13.50;;;12.10;;
14377;SDS011;7272;53.668;9.578;2023-01-19T00:55:16;13.77;;;12.33;;
14377;SDS011;7272;53.668;9.578;2023-01-19T00:58:18;13.27;;;12.03;;
14377;SDS011;7272;53.668;9.578;2023-01-19T01:01:22;13.90;;;12.30;;
14377;SDS011;7272;53.668;9.578;2023-01-19T01:04:24;15.60;;;12.53;;
14377;SDS011;7272;53.668;9.578;2023-01-19T01:07:26;13.87;;;12.50;;
14377;SDS011;7272;53.668;9.578;2023-01-19T01:10:29;13.33;;;12.03;;
14377;SDS011;7272;53.668;9.578;2023-01-19T01:13:31;14.23;;;12.83;;
14377;SDS011;7272;53.668;9.578;2023-01-19T01:16:33;13.90;;;12.63;;
14377;SDS011;7272;53.668;9.578;2023-01-19T01:19:35;13.07;;;11.77;;
14377;SDS011;7272;53.668;9.578;2023-01-19T01:22:37;13.10;;;11.80;;
14377;SDS011;7272;53.668;9.578;2023-01-19T01:25:41;13.57;;;12.37;;
14377;SDS011;7272;53.668;9.578;2023-01-19T01:28:43;13.73;;;12.30;;
14377;SDS011;7272;53.668;9.578;2023-01-19T01:31:45;14.43;;;12.93;;
14377;SDS011;7272;53.668;9.578;2023-01-19T01:34:47;13.77;;;12.57;;
14377;SDS011;7272;53.668;9.578;2023-01-19T01:37:49;14.47;;;13.17;;
14377;SDS011;7272;53.668;9.578;2023-01-19T01:40:52;13.90;;;12.37;;
14377;SDS011;7272;53.668;9.578;2023-01-19T01:43:54;12.87;;;11.67;;
14377;SDS011;7272;53.668;9.578;2023-01-19T01:46:59;13.90;;;12.63;;
14377;SDS011;7272;53.668;9.578;2023-01-19T01:50:04;14.33;;;12.93;;
14377;SDS011;7272;53.668;9.578;2023-01-19T01:53:10;13.97;;;12.67;;
14377;SDS011;7272;53.668;9.578;2023-01-19T01:56:16;13.70;;;12.40;;
14377;SDS011;7272;53.668;9.578;2023-01-19T01:59:22;14.40;;;12.90;;
14377;SDS011;7272;53.668;9.578;2023-01-19T02:02:27;13.67;;;12.47;;
14377;SDS011;7272;53.668;9.578;2023-01-19T02:05:49;13.43;;;12.13;;
14377;SDS011;7272;53.668;9.578;2023-01-19T02:08:57;13.77;;;12.47;;
14377;SDS011;7272;53.668;9.578;2023-01-19T02:12:23;14.83;;;12.53;;
14377;SDS011;7272;53.668;9.578;2023-01-19T02:15:43;14.27;;;12.87;;
14377;SDS011;7272;53.668;9.578;2023-01-19T02:18:45;13.90;;;12.57;;
14377;SDS011;7272;53.668;9.578;2023-01-19T02:21:49;14.10;;;12.80;;
14377;SDS011;7272;53.668;9.578;2023-01-19T02:24:56;14.33;;;12.97;;
14377;SDS011;7272;53.668;9.578;2023-01-19T02:27:58;13.70;;;12.30;;
14377;SDS011;7272;53.668;9.578;2023-01-19T02:31:01;14.87;;;13.50;;
14377;SDS011;7272;53.668;9.578;2023-01-19T02:34:04;14.53;;;12.97;;
14377;SDS011;7272;53.668;9.578;2023-01-19T02:37:08;13.60;;;12.30;;
14377;SDS011;7272;53.668;9.578;2023-01-19T02:40:14;15.13;;;13.57;;
14377;SDS011;7272;53.668;9.578;2023-01-19T02:43:19;15.17;;;13.77;;
14377;SDS011;7272;53.668;9.578;2023-01-19T02:46:24;14.80;;;13.50;;
14377;SDS011;7272;53.668;9.578;2023-01-19T02:49:26;15.17;;;13.77;;
14377;SDS011;7272;53.668;9.578;2023-01-19T02:52:29;14.87;;;13.40;;
14377;SDS011;7272;53.668;9.578;2023-01-19T02:55:32;15.73;;;14.23;;
14377;SDS011;7272;53.668;9.578;2023-01-19T02:58:36;16.97;;;15.27;;
14377;SDS011;7272;53.668;9.578;2023-01-19T03:01:50;15.17;;;13.83;;
14377;SDS011;7272;53.668;9.578;2023-01-19T03:05:11;16.30;;;14.70;;
14377;SDS011;7272;53.668;9.578;2023-01-19T03:08:25;15.37;;;14.03;;
14377;SDS011;7272;53.668;9.578;2023-01-19T03:11:36;15.33;;;13.83;;
14377;SDS011;7272;53.668;9.578;2023-01-19T03:14:41;16.63;;;15.13;;
14377;SDS011;7272;53.668;9.578;2023-01-19T03:17:47;15.30;;;13.90;;
14377;SDS011;7272;53.668;9.578;2023-01-19T03:20:52;15.10;;;13.60;;
14377;SDS011;7272;53.668;9.578;2023-01-19T03:23:59;15.10;;;13.70;;
14377;SDS011;7272;53.668;9.578;2023-01-19T03:27:07;14.77;;;13.30;;
14377;SDS011;7272;53.668;9.578;2023-01-19T03:30:14;15.30;;;13.90;;
14377;SDS011;7272;53.668;9.578;2023-01-19T03:33:20;15.73;;;14.10;;
14377;SDS011;7272;53.668;9.578;2023-01-19T03:36:28;15.17;;;13.70;;
14377;SDS011;7272;53.668;9.578;2023-01-19T03:39:32;14.77;;;13.37;;
14377;SDS011;7272;53.668;9.578;2023-01-19T03:42:36;15.10;;;13.70;;
14377;SDS011;7272;53.668;9.578;2023-01-19T03:45:40;16.30;;;14.70;;
14377;SDS011;7272;53.668;9.578;2023-01-19T03:48:44;15.63;;;13.77;;
14377;SDS011;7272;53.668;9.578;2023-01-19T03:51:47;15.03;;;13.63;;
14377;SDS011;7272;53.668;9.578;2023-01-19T03:54:49;15.73;;;14.07;;
14377;SDS011;7272;53.668;9.578;2023-01-19T03:57:52;16.40;;;14.77;;
14377;SDS011;7272;53.668;9.578;2023-01-19T04:00:54;15.27;;;13.73;;
14377;SDS011;7272;53.668;9.578;2023-01-19T04:03:56;15.37;;;13.90;;
14377;SDS011;7272;53.668;9.578;2023-01-19T04:06:58;15.93;;;14.43;;
14377;SDS011;7272;53.668;9.578;2023-01-19T04:10:00;14.80;;;13.40;;
14377;SDS011;7272;53.668;9.578;2023-01-19T04:13:03;17.27;;;14.63;;
14377;SDS011;7272;53.668;9.578;2023-01-19T04:16:06;16.47;;;14.77;;
14377;SDS011;7272;53.668;9.578;2023-01-19T04:19:08;16.10;;;14.60;;
14377;SDS011;7272;53.668;9.578;2023-01-19T04:22:10;16.10;;;14.70;;
14377;SDS011;7272;53.668;9.578;2023-01-19T04:25:12;15.13;;;13.73;;
14377;SDS011;7272;53.668;9.578;2023-01-19T04:28:16;15.83;;;14.33;;
14377;SDS011;7272;53.668;9.578;2023-01-19T04:31:17;16.63;;;14.47;;
14377;SDS011;7272;53.668;9.578;2023-01-19T04:34:19;16.97;;;15.17;;
14377;SDS011;7272;53.668;9.578;2023-01-19T04:37:21;16.47;;;14.87;;
14377;SDS011;7272;53.668;9.578;2023-01-19T04:40:23;16.37;;;14.83;;
14377;SDS011;7272;53.668;9.578;2023-01-19T04:43:26;16.40;;;14.87;;
14377;SDS011;7272;53.668;9.578;2023-01-19T04:46:28;16.07;;;14.47;;
14377;SDS011;7272;53.668;9.578;2023-01-19T04:49:30;16.00;;;14.53;;
14377;SDS011;7272;53.668;9.578;2023-01-19T04:52:32;16.03;;;14.43;;
14377;SDS011;7272;53.668;9.578;2023-01-19T04:55:35;14.37;;;13.07;;
14377;SDS011;7272;53.668;9.578;2023-01-19T04:58:39;16.43;;;14.93;;
14377;SDS011;7272;53.668;9.578;2023-01-19T05:01:41;16.73;;;15.07;;
14377;SDS011;7272;53.668;9.578;2023-01-19T05:04:43;16.13;;;14.63;;
14377;SDS011;7272;53.668;9.578;2023-01-19T05:07:45;16.63;;;14.93;;
14377;SDS011;7272;53.668;9.578;2023-01-19T05:10:47;15.27;;;13.97;;
14377;SDS011;7272;53.668;9.578;2023-01-19T05:13:50;15.77;;;14.40;;
14377;SDS011;7272;53.668;9.578;2023-01-19T05:16:52;14.83;;;13.33;;
14377;SDS011;7272;53.668;9.578;2023-01-19T05:19:54;16.30;;;14.80;;
14377;SDS011;7272;53.668;9.578;2023-01-19T05:22:56;17.27;;;15.60;;
14377;SDS011;7272;53.668;9.578;2023-01-19T05:25:58;14.60;;;13.37;;
14377;SDS011;7272;53.668;9.578;2023-01-19T05:29:03;16.40;;;14.63;;
14377;SDS011;7272;53.668;9.578;2023-01-19T05:32:05;16.70;;;15.10;;
14377;SDS011;7272;53.668;9.578;2023-01-19T05:35:07;18.53;;;16.83;;
14377;SDS011;7272;53.668;9.578;2023-01-19T05:38:09;17.97;;;16.33;;
14377;SDS011;7272;53.668;9.578;2023-01-19T05:41:11;18.50;;;16.70;;
14377;SDS011;7272;53.668;9.578;2023-01-19T05:44:15;17.37;;;15.77;;
14377;SDS011;7272;53.668;9.578;2023-01-19T05:47:17;18.50;;;16.80;;
14377;SDS011;7272;53.668;9.578;2023-01-19T05:50:19;18.17;;;16.50;;
14377;SDS011;7272;53.668;9.578;2023-01-19T05:53:21;18.37;;;16.57;;
14377;SDS011;7272;53.668;9.578;2023-01-19T05:56:23;17.17;;;15.67;;
14377;SDS011;7272;53.668;9.578;2023-01-19T05:59:26;16.60;;;15.10;;
14377;SDS011;7272;53.668;9.578;2023-01-19T06:02:28;17.93;;;16.23;;
14377;SDS011;7272;53.668;9.578;2023-01-19T06:05:30;18.00;;;16.37;;
14377;SDS011;7272;53.668;9.578;2023-01-19T06:08:32;17.13;;;15.53;;
14377;SDS011;7272;53.668;9.578;2023-01-19T06:11:34;15.83;;;14.40;;
14377;SDS011;7272;53.668;9.578;2023-01-19T06:14:37;16.93;;;15.40;;
14377;SDS011;7272;53.668;9.578;2023-01-19T06:17:40;17.17;;;15.67;;
14377;SDS011;7272;53.668;9.578;2023-01-19T06:20:42;17.13;;;15.60;;
14377;SDS011;7272;53.668;9.578;2023-01-19T06:23:44;15.93;;;14.53;;
14377;SDS011;7272;53.668;9.578;2023-01-19T06:26:46;15.60;;;14.27;;
14377;SDS011;7272;53.668;9.578;2023-01-19T06:29:49;16.40;;;15.10;;
14377;SDS011;7272;53.668;9.578;2023-01-19T06:32:51;16.87;;;15.27;;
14377;SDS011;7272;53.668;9.578;2023-01-19T06:35:54;16.07;;;14.67;;
14377;SDS011;7272;53.668;9.578;2023-01-19T06:38:56;16.20;;;14.80;;
14377;SDS011;7272;53.668;9.578;2023-01-19T06:41:58;16.50;;;15.10;;
14377;SDS011;7272;53.668;9.578;2023-01-19T06:45:01;16.37;;;14.87;;
14377;SDS011;7272;53.668;9.578;2023-01-19T06:48:03;16.23;;;14.77;;
14377;SDS011;7272;53.668;9.578;2023-01-19T06:51:05;16.87;;;15.37;;
14377;SDS011;7272;53.668;9.578;2023-01-19T06:54:07;17.10;;;15.60;;
14377;SDS011;7272;53.668;9.578;2023-01-19T06:57:09;16.30;;;14.90;;
14377;SDS011;7272;53.668;9.578;2023-01-19T07:00:13;18.60;;;16.83;;
14377;SDS011;7272;53.668;9.578;2023-01-19T07:03:17;18.33;;;16.60;;
14377;SDS011;7272;53.668;9.578;2023-01-19T07:06:20;18.13;;;16.27;;
14377;SDS011;7272;53.668;9.578;2023-01-19T07:09:22;17.90;;;16.20;;
14377;SDS011;7272;53.668;9.578;2023-01-19T07:12:24;18.43;;;16.77;;
14377;SDS011;7272;53.668;9.578;2023-01-19T07:15:27;18.87;;;17.07;;
14377;SDS011;7272;53.668;9.578;2023-01-19T07:18:29;18.47;;;16.83;;
14377;SDS011;7272;53.668;9.578;2023-01-19T07:21:32;19.73;;;17.87;;
14377;SDS011;7272;53.668;9.578;2023-01-19T07:24:33;19.23;;;17.27;;
14377;SDS011;7272;53.668;9.578;2023-01-19T07:27:37;20.00;;;18.10;;
14377;SDS011;7272;53.668;9.578;2023-01-19T07:30:41;19.13;;;17.33;;
14377;SDS011;7272;53.668;9.578;2023-01-19T07:33:43;18.03;;;16.43;;
14377;SDS011;7272;53.668;9.578;2023-01-19T07:36:45;19.77;;;17.97;;
14377;SDS011;7272;53.668;9.578;2023-01-19T07:39:47;18.23;;;16.53;;
14377;SDS011;7272;53.668;9.578;2023-01-19T07:42:49;18.97;;;17.17;;
14377;SDS011;7272;53.668;9.578;2023-01-19T07:45:54;18.07;;;16.33;;
14377;SDS011;7272;53.668;9.578;2023-01-19T07:48:56;19.47;;;17.53;;
14377;SDS011;7272;53.668;9.578;2023-01-19T07:51:58;18.33;;;16.60;;
14377;SDS011;7272;53.668;9.578;2023-01-19T07:55:00;19.77;;;17.90;;
14377;SDS011;7272;53.668;9.578;2023-01-19T07:58:02;21.27;;;19.17;;
14377;SDS011;7272;53.668;9.578;2023-01-19T08:01:08;20.77;;;18.83;;
14377;SDS011;7272;53.668;9.578;2023-01-19T08:04:11;20.13;;;18.23;;
14377;SDS011;7272;53.668;9.578;2023-01-19T08:07:13;20.77;;;18.63;;
14377;SDS011;7272;53.668;9.578;2023-01-19T08:10:15;20.17;;;18.10;;
14377;SDS011;7272;53.668;9.578;2023-01-19T08:13:17;20.10;;;18.10;;
14377;SDS011;7272;53.668;9.578;2023-01-19T08:16:21;18.63;;;16.80;;
14377;SDS011;7272;53.668;9.578;2023-01-19T08:19:23;18.53;;;16.77;;
14377;SDS011;7272;53.668;9.578;2023-01-19T08:22:25;20.00;;;18.10;;
14377;SDS011;7272;53.668;9.578;2023-01-19T08:25:30;19.20;;;17.40;;
14377;SDS011;7272;53.668;9.578;2023-01-19T08:28:33;19.30;;;17.50;;
14377;SDS011;7272;53.668;9.578;2023-01-19T08:31:36;20.30;;;18.27;;
14377;SDS011;7272;53.668;9.578;2023-01-19T08:34:38;19.57;;;17.67;;
14377;SDS011;7272;53.668;9.578;2023-01-19T08:37:40;19.43;;;17.63;;
14377;SDS011;7272;53.668;9.578;2023-01-19T08:40:42;20.47;;;18.33;;
14377;SDS011;7272;53.668;9.578;2023-01-19T08:43:44;19.97;;;18.07;;
14377;SDS011;7272;53.668;9.578;2023-01-19T08:46:47;17.77;;;15.97;;
14377;SDS011;7272;53.668;9.578;2023-01-19T08:49:49;20.30;;;18.33;;
14377;SDS011;7272;53.668;9.578;2023-01-19T08:52:51;18.37;;;16.77;;
14377;SDS011;7272;53.668;9.578;2023-01-19T08:55:56;19.57;;;17.43;;
14377;SDS011;7272;53.668;9.578;2023-01-19T08:59:00;18.77;;;16.97;;
14377;SDS011;7272;53.668;9.578;2023-01-19T09:02:03;20.10;;;18.20;;
14377;SDS011;7272;53.668;9.578;2023-01-19T09:05:06;19.90;;;18.00;;
14377;SDS011;7272;53.668;9.578;2023-01-19T09:08:09;19.90;;;17.90;;
14377;SDS011;7272;53.668;9.578;2023-01-19T09:11:13;18.47;;;16.67;;
14377;SDS011;7272;53.668;9.578;2023-01-19T09:14:16;18.37;;;16.57;;
14377;SDS011;7272;53.668;9.578;2023-01-19T09:17:19;18.93;;;17.20;;
14377;SDS011;7272;53.668;9.578;2023-01-19T09:20:21;18.43;;;16.73;;
14377;SDS011;7272;53.668;9.578;2023-01-19T09:23:23;18.70;;;16.90;;
14377;SDS011;7272;53.668;9.578;2023-01-19T09:26:25;18.27;;;16.53;;
14377;SDS011;7272;53.668;9.578;2023-01-19T09:29:27;18.97;;;17.10;;
14377;SDS011;7272;53.668;9.578;2023-01-19T09:32:30;19.10;;;17.30;;
14377;SDS011;7272;53.668;9.578;2023-01-19T09:35:33;16.67;;;15.13;;
14377;SDS011;7272;53.668;9.578;2023-01-19T09:38:36;17.67;;;16.07;;
14377;SDS011;7272;53.668;9.578;2023-01-19T09:41:38;19.23;;;17.27;;
14377;SDS011;7272;53.668;9.578;2023-01-19T09:44:46;17.77;;;16.00;;
14377;SDS011;7272;53.668;9.578;2023-01-19T09:47:53;17.73;;;16.03;;
14377;SDS011;7272;53.668;9.578;2023-01-19T09:50:57;15.60;;;14.20;;
14377;SDS011;7272;53.668;9.578;2023-01-19T09:54:04;17.40;;;15.70;;
14377;SDS011;7272;53.668;9.578;2023-01-19T09:57:12;24.87;;;22.50;;
14377;SDS011;7272;53.668;9.578;2023-01-19T10:00:15;18.07;;;16.47;;
14377;SDS011;7272;53.668;9.578;2023-01-19T10:03:18;27.70;;;24.90;;
14377;SDS011;7272;53.668;9.578;2023-01-19T10:06:21;18.50;;;16.63;;
14377;SDS011;7272;53.668;9.578;2023-01-19T10:09:23;18.43;;;16.60;;
14377;SDS011;7272;53.668;9.578;2023-01-19T10:15:55;21.60;;;19.27;;
14377;SDS011;7272;53.668;9.578;2023-01-19T10:19:11;19.17;;;17.30;;
14377;SDS011;7272;53.668;9.578;2023-01-19T10:22:21;18.13;;;16.30;;
14377;SDS011;7272;53.668;9.578;2023-01-19T10:25:25;15.57;;;14.13;;
14377;SDS011;7272;53.668;9.578;2023-01-19T10:28:28;17.53;;;15.83;;
14377;SDS011;7272;53.668;9.578;2023-01-19T10:31:30;17.73;;;16.13;;
14377;SDS011;7272;53.668;9.578;2023-01-19T10:34:37;17.77;;;15.97;;
14377;SDS011;7272;53.668;9.578;2023-01-19T10:37:40;17.93;;;16.23;;
14377;SDS011;7272;53.668;9.578;2023-01-19T10:40:45;17.57;;;15.97;;
14377;SDS011;7272;53.668;9.578;2023-01-19T10:43:59;17.30;;;15.67;;
14377;SDS011;7272;53.668;9.578;2023-01-19T10:47:03;17.53;;;15.83;;
14377;SDS011;7272;53.668;9.578;2023-01-19T10:50:20;15.57;;;14.17;;
14377;SDS011;7272;53.668;9.578;2023-01-19T10:53:24;17.90;;;16.23;;
14377;SDS011;7272;53.668;9.578;2023-01-19T10:56:27;18.10;;;16.37;;
14377;SDS011;7272;53.668;9.578;2023-01-19T10:59:33;17.80;;;16.00;;
14377;SDS011;7272;53.668;9.578;2023-01-19T11:02:38;16.40;;;14.83;;
14377;SDS011;7272;53.668;9.578;2023-01-19T11:05:52;15.83;;;14.30;;
14377;SDS011;7272;53.668;9.578;2023-01-19T11:09:08;17.80;;;16.20;;
14377;SDS011;7272;53.668;9.578;2023-01-19T11:12:15;15.67;;;14.17;;
14377;SDS011;7272;53.668;9.578;2023-01-19T11:15:22;15.60;;;14.20;;
14377;SDS011;7272;53.668;9.578;2023-01-19T11:18:26;15.03;;;13.63;;
14377;SDS011;7272;53.668;9.578;2023-01-19T11:21:31;15.47;;;14.07;;
14377;SDS011;7272;53.668;9.578;2023-01-19T11:24:35;16.27;;;14.73;;
14377;SDS011;7272;53.668;9.578;2023-01-19T11:27:46;15.53;;;14.13;;
14377;SDS011;7272;53.668;9.578;2023-01-19T11:30:54;15.67;;;14.17;;
14377;SDS011;7272;53.668;9.578;2023-01-19T11:33:58;16.63;;;14.80;;
14377;SDS011;7272;53.668;9.578;2023-01-19T11:37:03;15.33;;;13.93;;
14377;SDS011;7272;53.668;9.578;2023-01-19T11:40:07;16.20;;;14.60;;
14377;SDS011;7272;53.668;9.578;2023-01-19T11:43:10;13.77;;;12.57;;
14377;SDS011;7272;53.668;9.578;2023-01-19T11:46:13;16.30;;;14.80;;
14377;SDS011;7272;53.668;9.578;2023-01-19T11:49:18;14.13;;;12.83;;
14377;SDS011;7272;53.668;9.578;2023-01-19T11:52:27;14.60;;;13.20;;
14377;SDS011;7272;53.668;9.578;2023-01-19T11:55:35;14.37;;;13.07;;
14377;SDS011;7272;53.668;9.578;2023-01-19T11:58:40;14.50;;;13.17;;
14377;SDS011;7272;53.668;9.578;2023-01-19T12:01:46;14.17;;;12.77;;
14377;SDS011;7272;53.668;9.578;2023-01-19T12:04:54;13.40;;;12.10;;
14377;SDS011;7272;53.668;9.578;2023-01-19T12:08:02;12.70;;;11.47;;
14377;SDS011;7272;53.668;9.578;2023-01-19T12:11:07;14.67;;;13.17;;
14377;SDS011;7272;53.668;9.578;2023-01-19T12:14:13;14.50;;;13.03;;
14377;SDS011;7272;53.668;9.578;2023-01-19T12:17:21;13.10;;;11.90;;
14377;SDS011;7272;53.668;9.578;2023-01-19T12:20:27;12.33;;;11.13;;
14377;SDS011;7272;53.668;9.578;2023-01-19T12:26:57;12.67;;;11.47;;
14377;SDS011;7272;53.668;9.578;2023-01-19T12:30:01;11.53;;;10.43;;
14377;SDS011;7272;53.668;9.578;2023-01-19T12:33:20;14.77;;;12.03;;
14377;SDS011;7272;53.668;9.578;2023-01-19T12:36:36;11.53;;;10.53;;
14377;SDS011;7272;53.668;9.578;2023-01-19T12:39:44;12.20;;;11.03;;
14377;SDS011;7272;53.668;9.578;2023-01-19T12:42:50;11.87;;;10.23;;
14377;SDS011;7272;53.668;9.578;2023-01-19T12:45:57;13.20;;;11.83;;
14377;SDS011;7272;53.668;9.578;2023-01-19T12:49:02;11.87;;;10.73;;
14377;SDS011;7272;53.668;9.578;2023-01-19T12:52:11;11.67;;;10.50;;
14377;SDS011;7272;53.668;9.578;2023-01-19T12:55:21;13.27;;;12.03;;
14377;SDS011;7272;53.668;9.578;2023-01-19T12:58:25;12.07;;;10.97;;
14377;SDS011;7272;53.668;9.578;2023-01-19T13:01:27;11.70;;;10.57;;
14377;SDS011;7272;53.668;9.578;2023-01-19T13:04:30;12.73;;;10.90;;
14377;SDS011;7272;53.668;9.578;2023-01-19T13:11:19;12.67;;;11.47;;
14377;SDS011;7272;53.668;9.578;2023-01-19T13:17:43;13.10;;;11.37;;
14377;SDS011;7272;53.668;9.578;2023-01-19T13:20:50;12.03;;;10.83;;
14377;SDS011;7272;53.668;9.578;2023-01-19T13:23:56;11.30;;;10.27;;
14377;SDS011;7272;53.668;9.578;2023-01-19T13:27:01;13.60;;;10.13;;
14377;SDS011;7272;53.668;9.578;2023-01-19T13:30:08;11.37;;;10.17;;
14377;SDS011;7272;53.668;9.578;2023-01-19T13:33:13;10.50;;;9.50;;
14377;SDS011;7272;53.668;9.578;2023-01-19T13:36:24;10.00;;;9.00;;
14377;SDS011;7272;53.668;9.578;2023-01-19T13:39:33;8.50;;;7.63;;
14377;SDS011;7272;53.668;9.578;2023-01-19T13:42:39;7.47;;;6.77;;
14377;SDS011;7272;53.668;9.578;2023-01-19T13:45:44;8.57;;;7.67;;
14377;SDS011;7272;53.668;9.578;2023-01-19T13:48:52;10.10;;;8.17;;
14377;SDS011;7272;53.668;9.578;2023-01-19T13:52:08;7.40;;;6.67;;
14377;SDS011;7272;53.668;9.578;2023-01-19T13:55:14;8.00;;;7.20;;
14377;SDS011;7272;53.668;9.578;2023-01-19T13:58:20;7.87;;;7.20;;
14377;SDS011;7272;53.668;9.578;2023-01-19T14:01:23;7.57;;;6.83;;
14377;SDS011;7272;53.668;9.578;2023-01-19T14:04:26;7.97;;;6.50;;
14377;SDS011;7272;53.668;9.578;2023-01-19T14:07:29;6.93;;;6.23;;
14377;SDS011;7272;53.668;9.578;2023-01-19T14:10:31;7.63;;;6.93;;
14377;SDS011;7272;53.668;9.578;2023-01-19T14:13:35;6.73;;;5.77;;
14377;SDS011;7272;53.668;9.578;2023-01-19T14:16:40;7.10;;;6.43;;
14377;SDS011;7272;53.668;9.578;2023-01-19T14:19:46;5.40;;;4.90;;
14377;SDS011;7272;53.668;9.578;2023-01-19T14:22:48;7.17;;;6.47;;
14377;SDS011;7272;53.668;9.578;2023-01-19T14:25:51;7.53;;;6.10;;
14377;SDS011;7272;53.668;9.578;2023-01-19T14:28:54;10.73;;;5.90;;
14377;SDS011;7272;53.668;9.578;2023-01-19T14:35:22;6.57;;;5.00;;
14377;SDS011;7272;53.668;9.578;2023-01-19T14:38:25;5.10;;;4.53;;
14377;SDS011;7272;53.668;9.578;2023-01-19T14:41:29;6.17;;;4.80;;
14377;SDS011;7272;53.668;9.578;2023-01-19T14:44:39;5.03;;;3.87;;
14377;SDS011;7272;53.668;9.578;2023-01-19T14:47:51;7.87;;;4.50;;
14377;SDS011;7272;53.668;9.578;2023-01-19T14:50:58;3.77;;;3.40;;
14377;SDS011;7272;53.668;9.578;2023-01-19T14:54:02;5.57;;;3.30;;
14377;SDS011;7272;53.668;9.578;2023-01-19T14:57:04;4.13;;;2.80;;
14377;SDS011;7272;53.668;9.578;2023-01-19T15:00:14;3.50;;;2.73;;
14377;SDS011;7272;53.668;9.578;2023-01-19T15:03:17;7.00;;;2.60;;
14377;SDS011;7272;53.668;9.578;2023-01-19T15:06:19;4.50;;;2.80;;
14377;SDS011;7272;53.668;9.578;2023-01-19T15:09:22;3.80;;;2.90;;
14377;SDS011;7272;53.668;9.578;2023-01-19T15:12:24;8.10;;;6.83;;
14377;SDS011;7272;53.668;9.578;2023-01-19T15:15:30;5.90;;;3.33;;
14377;SDS011;7272;53.668;9.578;2023-01-19T15:18:33;4.60;;;2.73;;
14377;SDS011;7272;53.668;9.578;2023-01-19T15:21:35;3.23;;;1.87;;
14377;SDS011;7272;53.668;9.578;2023-01-19T15:24:41;4.27;;;2.20;;
14377;SDS011;7272;53.668;9.578;2023-01-19T15:27:46;5.30;;;1.90;;
14377;SDS011;7272;53.668;9.578;2023-01-19T15:30:50;3.43;;;2.47;;
14377;SDS011;7272;53.668;9.578;2023-01-19T15:33:52;2.00;;;1.80;;
14377;SDS011;7272;53.668;9.578;2023-01-19T15:36:54;3.87;;;1.97;;
14377;SDS011;7272;53.668;9.578;2023-01-19T15:39:57;4.33;;;1.70;;
14377;SDS011;7272;53.668;9.578;2023-01-19T15:42:59;3.53;;;2.33;;
14377;SDS011;7272;53.668;9.578;2023-01-19T15:46:02;3.80;;;1.80;;
14377;SDS011;7272;53.668;9.578;2023-01-19T15:49:05;3.47;;;1.50;;
14377;SDS011;7272;53.668;9.578;2023-01-19T15:52:07;5.17;;;1.60;;
14377;SDS011;7272;53.668;9.578;2023-01-19T15:55:09;3.97;;;1.60;;
14377;SDS011;7272;53.668;9.578;2023-01-19T15:58:12;3.63;;;1.43;;
14377;SDS011;7272;53.668;9.578;2023-01-19T16:01:16;3.83;;;1.70;;
14377;SDS011;7272;53.668;9.578;2023-01-19T16:04:19;2.70;;;1.70;;
14377;SDS011;7272;53.668;9.578;2023-01-19T16:07:20;3.23;;;1.50;;
14377;SDS011;7272;53.668;9.578;2023-01-19T16:10:23;5.93;;;1.87;;
14377;SDS011;7272;53.668;9.578;2023-01-19T16:13:25;6.47;;;2.33;;
14377;SDS011;7272;53.668;9.578;2023-01-19T16:16:30;3.03;;;1.60;;
14377;SDS011;7272;53.668;9.578;2023-01-19T16:19:32;3.77;;;1.77;;
14377;SDS011;7272;53.668;9.578;2023-01-19T16:22:34;4.53;;;1.50;;
14377;SDS011;7272;53.668;9.578;2023-01-19T16:25:36;5.33;;;1.63;;
14377;SDS011;7272;53.668;9.578;2023-01-19T16:28:38;5.70;;;2.10;;
14377;SDS011;7272;53.668;9.578;2023-01-19T16:31:42;2.83;;;1.63;;
14377;SDS011;7272;53.668;9.578;2023-01-19T16:34:44;3.50;;;1.60;;
14377;SDS011;7272;53.668;9.578;2023-01-19T16:37:48;4.73;;;1.90;;
14377;SDS011;7272;53.668;9.578;2023-01-19T16:40:51;4.80;;;1.77;;
14377;SDS011;7272;53.668;9.578;2023-01-19T16:43:54;3.40;;;2.10;;
14377;SDS011;7272;53.668;9.578;2023-01-19T16:46:58;3.77;;;1.80;;
14377;SDS011;7272;53.668;9.578;2023-01-19T16:50:00;3.63;;;2.20;;
14377;SDS011;7272;53.668;9.578;2023-01-19T16:53:02;3.03;;;1.77;;
14377;SDS011;7272;53.668;9.578;2023-01-19T16:56:04;4.50;;;1.90;;
14377;SDS011;7272;53.668;9.578;2023-01-19T16:59:08;4.40;;;1.73;;
14377;SDS011;7272;53.668;9.578;2023-01-19T17:02:13;2.33;;;1.50;;
14377;SDS011;7272;53.668;9.578;2023-01-19T17:05:16;4.83;;;1.70;;
14377;SDS011;7272;53.668;9.578;2023-01-19T17:08:17;4.00;;;1.53;;
14377;SDS011;7272;53.668;9.578;2023-01-19T17:11:21;6.03;;;2.13;;
14377;SDS011;7272;53.668;9.578;2023-01-19T17:14:26;3.13;;;1.83;;
14377;SDS011;7272;53.668;9.578;2023-01-19T17:17:30;3.50;;;1.60;;
14377;SDS011;7272;53.668;9.578;2023-01-19T17:20:34;3.27;;;1.80;;
14377;SDS011;7272;53.668;9.578;2023-01-19T17:23:40;3.70;;;1.70;;
14377;SDS011;7272;53.668;9.578;2023-01-19T17:26:43;3.83;;;1.70;;
14377;SDS011;7272;53.668;9.578;2023-01-19T17:29:47;59.07;;;28.17;;
14377;SDS011;7272;53.668;9.578;2023-01-19T17:32:51;58.43;;;29.10;;
14377;SDS011;7272;53.668;9.578;2023-01-19T17:35:53;11.73;;;7.97;;
14377;SDS011;7272;53.668;9.578;2023-01-19T17:38:56;12.43;;;7.93;;
14377;SDS011;7272;53.668;9.578;2023-01-19T17:41:59;9.37;;;5.17;;
14377;SDS011;7272;53.668;9.578;2023-01-19T17:45:01;5.60;;;3.83;;
14377;SDS011;7272;53.668;9.578;2023-01-19T17:48:05;6.33;;;4.23;;
14377;SDS011;7272;53.668;9.578;2023-01-19T17:51:08;5.80;;;3.93;;
14377;SDS011;7272;53.668;9.578;2023-01-19T17:54:12;5.73;;;3.57;;
14377;SDS011;7272;53.668;9.578;2023-01-19T17:57:14;8.67;;;4.53;;
14377;SDS011;7272;53.668;9.578;2023-01-19T18:00:16;6.33;;;4.20;;
14377;SDS011;7272;53.668;9.578;2023-01-19T18:03:20;3.77;;;3.00;;
14377;SDS011;7272;53.668;9.578;2023-01-19T18:06:22;3.83;;;2.47;;
14377;SDS011;7272;53.668;9.578;2023-01-19T18:09:24;3.77;;;2.40;;
14377;SDS011;7272;53.668;9.578;2023-01-19T18:12:26;8.70;;;4.87;;
14377;SDS011;7272;53.668;9.578;2023-01-19T18:15:28;5.30;;;4.00;;
14377;SDS011;7272;53.668;9.578;2023-01-19T18:18:31;6.27;;;2.93;;
14377;SDS011;7272;53.668;9.578;2023-01-19T18:21:33;9.27;;;8.30;;
14377;SDS011;7272;53.668;9.578;2023-01-19T18:24:36;5.93;;;5.10;;
14377;SDS011;7272;53.668;9.578;2023-01-19T18:27:38;4.63;;;2.80;;
14377;SDS011;7272;53.668;9.578;2023-01-19T18:30:40;5.10;;;3.47;;
14377;SDS011;7272;53.668;9.578;2023-01-19T18:33:43;3.07;;;2.50;;
14377;SDS011;7272;53.668;9.578;2023-01-19T18:36:45;3.20;;;2.40;;